sensor_id;sensor_type;location;lat;lon;timestamp;pressure;altitude;pressure_sealevel;temperature;humidity
17060;BME280;8646;49.716;9.266;2023-02-14T00:01:26;102373.19;;;2.78;98.56
17060;BME280;8646;49.716;9.266;2023-02-14T00:04:28;102374.06;;;2.75;98.49
17060;BME280;8646;49.716;9.266;2023-02-14T00:07:33;102375.34;;;2.95;96.80
17060;BME280;8646;49.716;9.266;2023-02-14T00:10:35;102377.44;;;3.10;95.99
17060;BME280;8646;49.716;9.266;2023-02-14T00:13:38;102367.25;;;2.91;96.08
17060;BME280;8646;49.716;9.266;2023-02-14T00:17:01;102379.88;;;2.98;95.87
17060;BME280;8646;49.716;9.266;2023-02-14T00:20:04;102383.06;;;2.80;96.44
17060;BME280;8646;49.716;9.266;2023-02-14T00:23:08;102380.44;;;2.82;95.97
17060;BME280;8646;49.716;9.266;2023-02-14T00:26:14;102378.75;;;2.87;94.95
17060;BME280;8646;49.716;9.266;2023-02-14T00:29:19;102376.72;;;2.77;95.63
17060;BME280;8646;49.716;9.266;2023-02-14T00:32:22;102365.88;;;2.67;95.93
17060;BME280;8646;49.716;9.266;2023-02-14T00:35:25;102372.06;;;2.66;95.76
17060;BME280;8646;49.716;9.266;2023-02-14T00:38:29;102349.53;;;2.55;95.70
17060;BME280;8646;49.716;9.266;2023-02-14T00:41:32;102363.34;;;2.75;95.69
17060;BME280;8646;49.716;9.266;2023-02-14T00:44:35;102363.47;;;2.81;95.51
17060;BME280;8646;49.716;9.266;2023-02-14T00:47:38;102364.38;;;2.82;95.07
17060;BME280;8646;49.716;9.266;2023-02-14T00:50:41;102361.78;;;2.86;94.79
17060;BME280;8646;49.716;9.266;2023-02-14T00:53:48;102368.13;;;2.90;94.73
17060;BME280;8646;49.716;9.266;2023-02-14T00:56:51;102345.69;;;2.83;94.69
17060;BME280;8646;49.716;9.266;2023-02-14T00:59:54;102358.50;;;2.99;94.37
17060;BME280;8646;49.716;9.266;2023-02-14T01:02:56;102371.91;;;3.01;94.23
17060;BME280;8646;49.716;9.266;2023-02-14T01:05:59;102377.25;;;2.99;94.17
17060;BME280;8646;49.716;9.266;2023-02-14T01:09:04;102379.00;;;2.99;93.91
17060;BME280;8646;49.716;9.266;2023-02-14T01:12:06;102381.88;;;3.08;93.20
17060;BME280;8646;49.716;9.266;2023-02-14T01:15:09;102379.06;;;3.02;93.52
17060;BME280;8646;49.716;9.266;2023-02-14T01:18:13;102386.31;;;3.09;92.52
17060;BME280;8646;49.716;9.266;2023-02-14T01:21:18;102379.50;;;3.23;91.47
17060;BME280;8646;49.716;9.266;2023-02-14T01:24:22;102373.84;;;3.08;92.17
17060;BME280;8646;49.716;9.266;2023-02-14T01:27:27;102379.28;;;3.13;91.99
17060;BME280;8646;49.716;9.266;2023-02-14T01:30:30;102379.91;;;2.99;92.79
17060;BME280;8646;49.716;9.266;2023-02-14T01:33:32;102372.56;;;2.89;93.20
17060;BME280;8646;49.716;9.266;2023-02-14T01:36:37;102367.44;;;3.00;93.26
17060;BME280;8646;49.716;9.266;2023-02-14T01:39:42;102361.16;;;2.98;93.47
17060;BME280;8646;49.716;9.266;2023-02-14T01:42:45;102362.97;;;2.99;93.53
17060;BME280;8646;49.716;9.266;2023-02-14T01:45:47;102370.03;;;2.97;93.76
17060;BME280;8646;49.716;9.266;2023-02-14T01:48:51;102366.50;;;2.98;93.80
17060;BME280;8646;49.716;9.266;2023-02-14T01:51:59;102363.13;;;3.06;93.19
17060;BME280;8646;49.716;9.266;2023-02-14T01:55:10;102363.03;;;3.03;93.71
17060;BME280;8646;49.716;9.266;2023-02-14T01:58:18;102360.38;;;3.03;93.70
17060;BME280;8646;49.716;9.266;2023-02-14T02:01:23;102359.56;;;3.09;93.71
17060;BME280;8646;49.716;9.266;2023-02-14T02:04:38;102366.75;;;3.10;93.51
17060;BME280;8646;49.716;9.266;2023-02-14T02:07:43;102357.81;;;3.08;93.87
17060;BME280;8646;49.716;9.266;2023-02-14T02:10:47;102360.41;;;3.05;94.26
17060;BME280;8646;49.716;9.266;2023-02-14T02:13:49;102356.09;;;3.13;93.49
17060;BME280;8646;49.716;9.266;2023-02-14T02:17:08;102352.38;;;3.05;94.09
17060;BME280;8646;49.716;9.266;2023-02-14T02:20:27;102346.13;;;3.04;94.30
17060;BME280;8646;49.716;9.266;2023-02-14T02:23:58;102353.31;;;3.07;94.10
17060;BME280;8646;49.716;9.266;2023-02-14T02:27:23;102350.03;;;3.22;93.38
17060;BME280;8646;49.716;9.266;2023-02-14T02:30:38;102348.00;;;3.10;94.03
17060;BME280;8646;49.716;9.266;2023-02-14T02:34:12;102349.78;;;3.10;93.92
17060;BME280;8646;49.716;9.266;2023-02-14T02:37:34;102343.53;;;3.09;94.41
17060;BME280;8646;49.716;9.266;2023-02-14T02:40:46;102341.91;;;3.17;93.88
17060;BME280;8646;49.716;9.266;2023-02-14T02:43:53;102353.44;;;3.13;93.99
17060;BME280;8646;49.716;9.266;2023-02-14T02:47:01;102345.28;;;3.07;94.05
17060;BME280;8646;49.716;9.266;2023-02-14T02:50:18;102344.53;;;3.14;93.86
17060;BME280;8646;49.716;9.266;2023-02-14T02:53:44;102330.47;;;3.24;93.78
17060;BME280;8646;49.716;9.266;2023-02-14T02:56:52;102306.53;;;3.33;92.68
17060;BME280;8646;49.716;9.266;2023-02-14T02:59:56;102331.66;;;3.41;92.21
17060;BME280;8646;49.716;9.266;2023-02-14T03:03:01;102331.34;;;3.23;93.30
17060;BME280;8646;49.716;9.266;2023-02-14T03:06:21;102341.00;;;3.17;93.75
17060;BME280;8646;49.716;9.266;2023-02-14T03:09:51;102333.78;;;3.13;93.90
17060;BME280;8646;49.716;9.266;2023-02-14T03:16:31;102334.63;;;3.10;94.45
17060;BME280;8646;49.716;9.266;2023-02-14T03:19:41;102329.34;;;3.13;94.29
17060;BME280;8646;49.716;9.266;2023-02-14T03:23:08;102323.22;;;3.19;93.96
17060;BME280;8646;49.716;9.266;2023-02-14T03:26:17;102335.66;;;3.17;94.46
17060;BME280;8646;49.716;9.266;2023-02-14T03:29:26;102333.06;;;3.21;94.16
17060;BME280;8646;49.716;9.266;2023-02-14T03:32:35;102332.28;;;3.27;94.03
17060;BME280;8646;49.716;9.266;2023-02-14T03:35:46;102334.16;;;3.31;94.06
17060;BME280;8646;49.716;9.266;2023-02-14T03:38:56;102340.34;;;3.28;93.81
17060;BME280;8646;49.716;9.266;2023-02-14T03:42:06;102339.44;;;3.28;93.87
17060;BME280;8646;49.716;9.266;2023-02-14T03:45:15;102345.66;;;3.27;93.92
17060;BME280;8646;49.716;9.266;2023-02-14T03:48:21;102344.81;;;3.29;94.34
17060;BME280;8646;49.716;9.266;2023-02-14T03:51:26;102341.88;;;3.14;95.00
17060;BME280;8646;49.716;9.266;2023-02-14T03:54:34;102337.59;;;3.24;95.16
17060;BME280;8646;49.716;9.266;2023-02-14T03:57:44;102330.53;;;3.29;94.73
17060;BME280;8646;49.716;9.266;2023-02-14T04:00:49;102327.78;;;3.24;94.75
17060;BME280;8646;49.716;9.266;2023-02-14T04:03:55;102314.25;;;3.15;94.83
17060;BME280;8646;49.716;9.266;2023-02-14T04:07:07;102329.63;;;3.28;94.67
17060;BME280;8646;49.716;9.266;2023-02-14T04:10:10;102328.09;;;3.42;93.91
17060;BME280;8646;49.716;9.266;2023-02-14T04:13:14;102335.06;;;3.31;94.31
17060;BME280;8646;49.716;9.266;2023-02-14T04:16:17;102329.91;;;3.43;93.88
17060;BME280;8646;49.716;9.266;2023-02-14T04:19:45;102319.09;;;3.37;93.71
17060;BME280;8646;49.716;9.266;2023-02-14T04:22:48;102326.19;;;3.35;94.24
17060;BME280;8646;49.716;9.266;2023-02-14T04:25:52;102335.22;;;3.40;94.07
17060;BME280;8646;49.716;9.266;2023-02-14T04:28:56;102342.44;;;3.44;93.77
17060;BME280;8646;49.716;9.266;2023-02-14T04:31:59;102332.78;;;3.54;93.05
17060;BME280;8646;49.716;9.266;2023-02-14T04:35:02;102337.88;;;3.39;93.64
17060;BME280;8646;49.716;9.266;2023-02-14T04:38:05;102334.34;;;3.40;93.79
17060;BME280;8646;49.716;9.266;2023-02-14T04:41:07;102335.06;;;3.31;94.43
17060;BME280;8646;49.716;9.266;2023-02-14T04:44:14;102326.81;;;3.21;94.46
17060;BME280;8646;49.716;9.266;2023-02-14T04:47:16;102314.41;;;3.24;94.24
17060;BME280;8646;49.716;9.266;2023-02-14T04:50:19;102332.41;;;3.34;94.23
17060;BME280;8646;49.716;9.266;2023-02-14T04:53:23;102330.53;;;3.29;94.57
17060;BME280;8646;49.716;9.266;2023-02-14T04:56:26;102333.19;;;3.27;94.62
17060;BME280;8646;49.716;9.266;2023-02-14T04:59:30;102326.03;;;3.26;94.35
17060;BME280;8646;49.716;9.266;2023-02-14T05:02:33;102324.19;;;3.22;94.46
17060;BME280;8646;49.716;9.266;2023-02-14T05:05:36;102326.75;;;3.16;94.84
17060;BME280;8646;49.716;9.266;2023-02-14T05:08:39;102315.06;;;3.13;94.69
17060;BME280;8646;49.716;9.266;2023-02-14T05:11:41;102325.72;;;3.11;94.88
17060;BME280;8646;49.716;9.266;2023-02-14T05:14:45;102331.09;;;3.11;94.56
17060;BME280;8646;49.716;9.266;2023-02-14T05:17:48;102329.28;;;3.10;94.48
17060;BME280;8646;49.716;9.266;2023-02-14T05:20:52;102320.38;;;3.11;94.64
17060;BME280;8646;49.716;9.266;2023-02-14T05:23:55;102323.13;;;3.14;94.25
17060;BME280;8646;49.716;9.266;2023-02-14T05:26:57;102314.28;;;3.18;94.35
17060;BME280;8646;49.716;9.266;2023-02-14T05:30:02;102316.19;;;3.24;93.76
17060;BME280;8646;49.716;9.266;2023-02-14T05:33:05;102317.09;;;3.24;93.70
17060;BME280;8646;49.716;9.266;2023-02-14T05:36:09;102325.88;;;3.19;93.54
17060;BME280;8646;49.716;9.266;2023-02-14T05:39:11;102313.38;;;3.16;93.32
17060;BME280;8646;49.716;9.266;2023-02-14T05:42:14;102313.19;;;3.07;93.62
17060;BME280;8646;49.716;9.266;2023-02-14T05:45:19;102327.34;;;3.03;93.70
17060;BME280;8646;49.716;9.266;2023-02-14T05:48:21;102323.84;;;3.05;93.78
17060;BME280;8646;49.716;9.266;2023-02-14T05:51:24;102310.56;;;3.10;93.56
17060;BME280;8646;49.716;9.266;2023-02-14T05:54:27;102310.50;;;3.07;93.89
17060;BME280;8646;49.716;9.266;2023-02-14T05:57:30;102312.31;;;3.08;93.74
17060;BME280;8646;49.716;9.266;2023-02-14T06:00:34;102314.09;;;3.09;93.34
17060;BME280;8646;49.716;9.266;2023-02-14T06:03:40;102310.59;;;3.12;93.10
17060;BME280;8646;49.716;9.266;2023-02-14T06:06:43;102320.28;;;3.05;93.55
17060;BME280;8646;49.716;9.266;2023-02-14T06:09:46;102315.81;;;3.05;93.48
17060;BME280;8646;49.716;9.266;2023-02-14T06:12:49;102321.22;;;3.07;93.59
17060;BME280;8646;49.716;9.266;2023-02-14T06:15:54;102332.91;;;3.12;93.51
17060;BME280;8646;49.716;9.266;2023-02-14T06:18:56;102323.94;;;3.10;93.71
17060;BME280;8646;49.716;9.266;2023-02-14T06:21:59;102332.09;;;3.18;93.31
17060;BME280;8646;49.716;9.266;2023-02-14T06:25:02;102329.41;;;3.16;93.41
17060;BME280;8646;49.716;9.266;2023-02-14T06:28:05;102332.91;;;3.12;93.43
17060;BME280;8646;49.716;9.266;2023-02-14T06:31:15;102328.53;;;3.16;93.36
17060;BME280;8646;49.716;9.266;2023-02-14T06:34:18;102329.47;;;3.19;93.40
17060;BME280;8646;49.716;9.266;2023-02-14T06:37:21;102329.56;;;3.25;93.64
17060;BME280;8646;49.716;9.266;2023-02-14T06:40:24;102334.91;;;3.25;93.92
17060;BME280;8646;49.716;9.266;2023-02-14T06:43:26;102339.50;;;3.31;94.06
17060;BME280;8646;49.716;9.266;2023-02-14T06:46:30;102341.75;;;3.56;92.05
17060;BME280;8646;49.716;9.266;2023-02-14T06:49:33;102325.53;;;3.47;91.63
17060;BME280;8646;49.716;9.266;2023-02-14T06:52:36;102325.09;;;3.23;92.43
17060;BME280;8646;49.716;9.266;2023-02-14T06:55:39;102331.28;;;3.20;92.43
17060;BME280;8646;49.716;9.266;2023-02-14T06:58:44;102341.00;;;3.17;92.80
17060;BME280;8646;49.716;9.266;2023-02-14T07:01:48;102333.94;;;3.20;92.27
17060;BME280;8646;49.716;9.266;2023-02-14T07:04:51;102340.09;;;3.15;92.27
17060;BME280;8646;49.716;9.266;2023-02-14T07:07:54;102342.69;;;3.12;92.24
17060;BME280;8646;49.716;9.266;2023-02-14T07:10:57;102335.41;;;3.04;92.45
17060;BME280;8646;49.716;9.266;2023-02-14T07:14:00;102334.56;;;3.05;92.30
17060;BME280;8646;49.716;9.266;2023-02-14T07:17:04;102334.66;;;3.12;92.04
17060;BME280;8646;49.716;9.266;2023-02-14T07:20:08;102313.00;;;2.98;92.22
17060;BME280;8646;49.716;9.266;2023-02-14T07:23:11;102333.69;;;3.06;92.28
17060;BME280;8646;49.716;9.266;2023-02-14T07:26:14;102332.84;;;3.11;92.41
17060;BME280;8646;49.716;9.266;2023-02-14T07:29:18;102337.34;;;3.12;92.24
17060;BME280;8646;49.716;9.266;2023-02-14T07:32:22;102334.78;;;3.16;92.26
17060;BME280;8646;49.716;9.266;2023-02-14T07:35:25;102336.69;;;3.23;92.15
17060;BME280;8646;49.716;9.266;2023-02-14T07:38:28;102335.03;;;3.30;91.88
17060;BME280;8646;49.716;9.266;2023-02-14T07:41:31;102334.28;;;3.38;91.81
17060;BME280;8646;49.716;9.266;2023-02-14T07:44:33;102324.41;;;3.36;91.54
17060;BME280;8646;49.716;9.266;2023-02-14T07:47:37;102325.25;;;3.33;91.55
17060;BME280;8646;49.716;9.266;2023-02-14T07:50:40;102311.00;;;3.34;91.13
17060;BME280;8646;49.716;9.266;2023-02-14T07:53:43;102335.34;;;3.47;91.12
17060;BME280;8646;49.716;9.266;2023-02-14T07:56:45;102328.19;;;3.45;90.43
17060;BME280;8646;49.716;9.266;2023-02-14T07:59:48;102336.06;;;3.38;90.81
17060;BME280;8646;49.716;9.266;2023-02-14T08:02:52;102339.69;;;3.41;90.86
17060;BME280;8646;49.716;9.266;2023-02-14T08:05:56;102337.06;;;3.44;91.16
17060;BME280;8646;49.716;9.266;2023-02-14T08:08:59;102341.59;;;3.47;91.07
17060;BME280;8646;49.716;9.266;2023-02-14T08:12:03;102335.38;;;3.50;91.22
17060;BME280;8646;49.716;9.266;2023-02-14T08:15:24;102334.56;;;3.54;90.76
17060;BME280;8646;49.716;9.266;2023-02-14T08:18:45;102329.16;;;3.51;91.23
17060;BME280;8646;49.716;9.266;2023-02-14T08:21:48;102329.22;;;3.54;91.19
17060;BME280;8646;49.716;9.266;2023-02-14T08:24:51;102330.09;;;3.53;90.77
17060;BME280;8646;49.716;9.266;2023-02-14T08:27:53;102338.88;;;3.45;90.51
17060;BME280;8646;49.716;9.266;2023-02-14T08:30:56;102325.38;;;3.38;91.08
17060;BME280;8646;49.716;9.266;2023-02-14T08:34:01;102338.94;;;3.49;91.13
17060;BME280;8646;49.716;9.266;2023-02-14T08:37:03;102332.97;;;3.63;90.60
17060;BME280;8646;49.716;9.266;2023-02-14T08:40:07;102332.09;;;3.66;90.87
17060;BME280;8646;49.716;9.266;2023-02-14T08:43:11;102320.50;;;3.67;90.70
17060;BME280;8646;49.716;9.266;2023-02-14T08:46:14;102311.59;;;3.68;90.67
17060;BME280;8646;49.716;9.266;2023-02-14T08:49:19;102319.88;;;3.83;90.04
17060;BME280;8646;49.716;9.266;2023-02-14T08:52:22;102312.91;;;3.93;89.04
17060;BME280;8646;49.716;9.266;2023-02-14T08:55:25;102311.13;;;3.93;89.91
17060;BME280;8646;49.716;9.266;2023-02-14T08:58:29;102313.03;;;4.00;89.87
17060;BME280;8646;49.716;9.266;2023-02-14T09:01:34;102311.34;;;4.07;89.91
17060;BME280;8646;49.716;9.266;2023-02-14T09:04:39;102310.50;;;4.09;89.42
17060;BME280;8646;49.716;9.266;2023-02-14T09:07:41;102282.44;;;3.86;89.43
17060;BME280;8646;49.716;9.266;2023-02-14T09:10:44;102318.53;;;4.09;88.68
17060;BME280;8646;49.716;9.266;2023-02-14T09:13:48;102307.03;;;4.16;87.62
17060;BME280;8646;49.716;9.266;2023-02-14T09:16:51;102310.47;;;4.08;88.48
17060;BME280;8646;49.716;9.266;2023-02-14T09:19:55;102313.03;;;4.00;88.93
17060;BME280;8646;49.716;9.266;2023-02-14T09:22:58;102311.22;;;3.99;89.38
17060;BME280;8646;49.716;9.266;2023-02-14T09:26:01;102316.72;;;4.08;89.45
17060;BME280;8646;49.716;9.266;2023-02-14T09:29:04;102308.09;;;4.28;88.30
17060;BME280;8646;49.716;9.266;2023-02-14T09:32:06;102309.88;;;4.30;87.61
17060;BME280;8646;49.716;9.266;2023-02-14T09:35:11;102306.09;;;4.14;88.27
17060;BME280;8646;49.716;9.266;2023-02-14T09:38:14;102306.00;;;4.08;88.86
17060;BME280;8646;49.716;9.266;2023-02-14T09:44:52;102301.81;;;4.27;88.68
17060;BME280;8646;49.716;9.266;2023-02-14T09:47:58;102307.28;;;4.35;88.19
17060;BME280;8646;49.716;9.266;2023-02-14T09:51:09;102297.38;;;4.31;88.26
17060;BME280;8646;49.716;9.266;2023-02-14T09:54:18;102302.97;;;4.47;88.61
17060;BME280;8646;49.716;9.266;2023-02-14T09:57:30;102298.63;;;4.54;88.26
17060;BME280;8646;49.716;9.266;2023-02-14T10:00:41;102294.34;;;4.71;87.35
17060;BME280;8646;49.716;9.266;2023-02-14T10:03:59;102285.34;;;4.65;87.04
17060;BME280;8646;49.716;9.266;2023-02-14T10:07:16;102288.00;;;4.63;87.38
17060;BME280;8646;49.716;9.266;2023-02-14T10:10:24;102292.56;;;4.72;87.71
17060;BME280;8646;49.716;9.266;2023-02-14T10:13:30;102291.84;;;4.83;87.48
17060;BME280;8646;49.716;9.266;2023-02-14T10:16:41;102290.00;;;4.78;87.58
17060;BME280;8646;49.716;9.266;2023-02-14T10:19:46;102281.94;;;4.79;87.41
17060;BME280;8646;49.716;9.266;2023-02-14T10:23:00;102279.31;;;4.82;86.89
17060;BME280;8646;49.716;9.266;2023-02-14T10:26:07;102273.03;;;4.82;86.65
17060;BME280;8646;49.716;9.266;2023-02-14T10:29:14;102271.31;;;4.88;86.99
17060;BME280;8646;49.716;9.266;2023-02-14T10:32:21;102279.31;;;4.82;86.92
17060;BME280;8646;49.716;9.266;2023-02-14T10:35:34;102275.78;;;4.88;86.71
17060;BME280;8646;49.716;9.266;2023-02-14T10:38:51;102270.41;;;4.85;86.51
17060;BME280;8646;49.716;9.266;2023-02-14T10:42:05;102261.53;;;4.95;86.14
17060;BME280;8646;49.716;9.266;2023-02-14T10:45:18;102258.00;;;4.94;86.44
17060;BME280;8646;49.716;9.266;2023-02-14T10:48:44;102261.66;;;5.04;86.23
17060;BME280;8646;49.716;9.266;2023-02-14T10:51:53;102253.75;;;5.18;86.10
17060;BME280;8646;49.716;9.266;2023-02-14T10:55:07;102238.50;;;5.15;84.69
17060;BME280;8646;49.716;9.266;2023-02-14T10:58:33;102246.69;;;5.29;85.37
17060;BME280;8646;49.716;9.266;2023-02-14T11:01:37;102247.63;;;5.35;84.84
17060;BME280;8646;49.716;9.266;2023-02-14T11:04:41;102244.09;;;5.38;85.04
17060;BME280;8646;49.716;9.266;2023-02-14T11:07:44;102229.81;;;5.42;85.01
17060;BME280;8646;49.716;9.266;2023-02-14T11:10:48;102237.06;;;5.54;84.40
17060;BME280;8646;49.716;9.266;2023-02-14T11:13:51;102227.22;;;5.54;84.39
17060;BME280;8646;49.716;9.266;2023-02-14T11:16:55;102220.16;;;5.68;83.01
17060;BME280;8646;49.716;9.266;2023-02-14T11:20:01;102220.22;;;5.78;83.32
17060;BME280;8646;49.716;9.266;2023-02-14T11:23:17;102224.75;;;5.85;83.47
17060;BME280;8646;49.716;9.266;2023-02-14T11:26:24;102218.56;;;5.89;83.52
17060;BME280;8646;49.716;9.266;2023-02-14T11:29:29;102214.88;;;5.81;83.13
17060;BME280;8646;49.716;9.266;2023-02-14T11:32:33;102213.94;;;5.77;83.23
17060;BME280;8646;49.716;9.266;2023-02-14T11:35:38;102204.03;;;5.68;83.24
17060;BME280;8646;49.716;9.266;2023-02-14T11:38:42;102204.94;;;5.67;83.21
17060;BME280;8646;49.716;9.266;2023-02-14T11:41:50;102205.84;;;5.71;83.78
17060;BME280;8646;49.716;9.266;2023-02-14T11:44:54;102205.91;;;5.75;83.70
17060;BME280;8646;49.716;9.266;2023-02-14T11:48:17;102169.97;;;5.58;83.26
17060;BME280;8646;49.716;9.266;2023-02-14T11:51:42;102193.31;;;5.71;82.73
17060;BME280;8646;49.716;9.266;2023-02-14T11:54:46;102189.78;;;5.74;83.24
17060;BME280;8646;49.716;9.266;2023-02-14T11:57:52;102182.66;;;5.84;83.38
17060;BME280;8646;49.716;9.266;2023-02-14T12:01:01;102187.22;;;5.89;82.88
17060;BME280;8646;49.716;9.266;2023-02-14T12:04:06;102179.16;;;5.94;82.61
17060;BME280;8646;49.716;9.266;2023-02-14T12:07:20;102179.19;;;6.01;82.43
17060;BME280;8646;49.716;9.266;2023-02-14T12:10:26;102181.00;;;6.02;82.85
17060;BME280;8646;49.716;9.266;2023-02-14T12:13:31;102161.41;;;6.23;82.46
17060;BME280;8646;49.716;9.266;2023-02-14T12:16:38;102158.69;;;6.26;81.69
17060;BME280;8646;49.716;9.266;2023-02-14T12:19:46;102161.38;;;6.16;81.58
17060;BME280;8646;49.716;9.266;2023-02-14T12:22:54;102154.22;;;6.16;81.46
17060;BME280;8646;49.716;9.266;2023-02-14T12:26:05;102152.34;;;6.09;81.43
17060;BME280;8646;49.716;9.266;2023-02-14T12:29:17;102153.28;;;6.08;81.78
17060;BME280;8646;49.716;9.266;2023-02-14T12:32:24;102154.13;;;5.99;82.00
17060;BME280;8646;49.716;9.266;2023-02-14T12:35:37;102146.94;;;5.98;81.92
17060;BME280;8646;49.716;9.266;2023-02-14T12:38:51;102140.72;;;6.05;82.13
17060;BME280;8646;49.716;9.266;2023-02-14T12:42:01;102140.75;;;6.18;81.41
17060;BME280;8646;49.716;9.266;2023-02-14T12:45:16;102136.25;;;6.18;81.72
17060;BME280;8646;49.716;9.266;2023-02-14T12:48:31;102130.88;;;6.18;80.94
17060;BME280;8646;49.716;9.266;2023-02-14T12:51:41;102126.41;;;6.08;81.56
17060;BME280;8646;49.716;9.266;2023-02-14T12:54:55;102127.25;;;6.04;81.07
17060;BME280;8646;49.716;9.266;2023-02-14T12:58:14;102120.06;;;6.03;81.31
17060;BME280;8646;49.716;9.266;2023-02-14T13:04:59;102118.31;;;6.08;81.38
17060;BME280;8646;49.716;9.266;2023-02-14T13:08:15;102139.84;;;6.08;81.64
17060;BME280;8646;49.716;9.266;2023-02-14T13:11:27;102122.81;;;6.18;81.36
17060;BME280;8646;49.716;9.266;2023-02-14T13:14:43;102121.94;;;6.25;81.79
17060;BME280;8646;49.716;9.266;2023-02-14T13:17:52;102106.75;;;6.33;81.04
17060;BME280;8646;49.716;9.266;2023-02-14T13:21:00;102113.91;;;6.30;81.03
17060;BME280;8646;49.716;9.266;2023-02-14T13:24:16;102111.25;;;6.31;81.17
17060;BME280;8646;49.716;9.266;2023-02-14T13:27:21;102097.75;;;6.27;81.57
17060;BME280;8646;49.716;9.266;2023-02-14T13:30:28;102100.44;;;6.19;80.79
17060;BME280;8646;49.716;9.266;2023-02-14T13:33:35;102102.22;;;6.14;81.52
17060;BME280;8646;49.716;9.266;2023-02-14T13:36:41;102104.00;;;6.18;80.30
17060;BME280;8646;49.716;9.266;2023-02-14T13:39:47;102091.44;;;6.17;80.46
17060;BME280;8646;49.716;9.266;2023-02-14T13:42:55;102092.34;;;6.07;81.34
17060;BME280;8646;49.716;9.266;2023-02-14T13:45:58;102095.94;;;6.07;81.41
17060;BME280;8646;49.716;9.266;2023-02-14T13:52:41;102084.31;;;6.25;81.39
17060;BME280;8646;49.716;9.266;2023-02-14T13:55:44;102074.47;;;6.29;81.21
17060;BME280;8646;49.716;9.266;2023-02-14T13:58:50;102071.78;;;6.27;81.28
17060;BME280;8646;49.716;9.266;2023-02-14T14:01:54;102080.72;;;6.26;81.31
17060;BME280;8646;49.716;9.266;2023-02-14T14:04:59;102082.50;;;6.26;80.35
17060;BME280;8646;49.716;9.266;2023-02-14T14:11:56;102076.22;;;6.07;81.43
17060;BME280;8646;49.716;9.266;2023-02-14T14:15:18;102083.31;;;5.96;81.17
17060;BME280;8646;49.716;9.266;2023-02-14T14:18:36;102085.03;;;5.83;81.61
17060;BME280;8646;49.716;9.266;2023-02-14T14:21:44;102080.59;;;5.93;81.52
17060;BME280;8646;49.716;9.266;2023-02-14T14:25:09;102078.81;;;5.89;82.19
17060;BME280;8646;49.716;9.266;2023-02-14T14:28:17;102052.75;;;5.72;82.46
17060;BME280;8646;49.716;9.266;2023-02-14T14:31:21;102067.09;;;5.85;82.37
17060;BME280;8646;49.716;9.266;2023-02-14T14:34:26;102069.88;;;5.90;82.21
17060;BME280;8646;49.716;9.266;2023-02-14T14:37:30;102066.22;;;5.86;82.24
17060;BME280;8646;49.716;9.266;2023-02-14T14:40:36;102073.38;;;5.86;82.01
17060;BME280;8646;49.716;9.266;2023-02-14T14:43:39;102070.63;;;5.69;82.48
17060;BME280;8646;49.716;9.266;2023-02-14T14:46:43;102073.31;;;5.67;82.98
17060;BME280;8646;49.716;9.266;2023-02-14T14:49:47;102068.84;;;5.71;83.10
17060;BME280;8646;49.716;9.266;2023-02-14T14:52:52;102065.22;;;5.58;83.26
17060;BME280;8646;49.716;9.266;2023-02-14T14:55:57;102046.34;;;5.46;83.36
17060;BME280;8646;49.716;9.266;2023-02-14T14:59:15;102068.81;;;5.65;83.38
17060;BME280;8646;49.716;9.266;2023-02-14T15:02:24;102055.44;;;5.75;82.49
17060;BME280;8646;49.716;9.266;2023-02-14T15:05:30;102059.94;;;5.75;82.22
17060;BME280;8646;49.716;9.266;2023-02-14T15:08:35;102056.28;;;5.59;82.90
17060;BME280;8646;49.716;9.266;2023-02-14T15:11:40;102054.38;;;5.42;83.77
17060;BME280;8646;49.716;9.266;2023-02-14T15:15:14;102052.59;;;5.42;83.59
17060;BME280;8646;49.716;9.266;2023-02-14T15:18:18;102050.75;;;5.32;84.00
17060;BME280;8646;49.716;9.266;2023-02-14T15:21:22;102036.34;;;5.18;84.57
17060;BME280;8646;49.716;9.266;2023-02-14T15:24:25;102054.28;;;5.29;84.16
17060;BME280;8646;49.716;9.266;2023-02-14T15:27:29;102055.13;;;5.19;84.58
17060;BME280;8646;49.716;9.266;2023-02-14T15:30:34;102043.50;;;5.22;84.12
17060;BME280;8646;49.716;9.266;2023-02-14T15:33:39;102053.31;;;5.17;84.38
17060;BME280;8646;49.716;9.266;2023-02-14T15:36:42;102042.47;;;4.98;85.47
17060;BME280;8646;49.716;9.266;2023-02-14T15:39:49;102053.16;;;4.94;85.32
17060;BME280;8646;49.716;9.266;2023-02-14T15:42:55;102055.84;;;4.97;85.71
17060;BME280;8646;49.716;9.266;2023-02-14T15:46:13;102053.25;;;5.08;85.18
17060;BME280;8646;49.716;9.266;2023-02-14T15:49:20;102054.94;;;4.96;85.63
17060;BME280;8646;49.716;9.266;2023-02-14T15:52:24;102047.91;;;5.12;84.93
17060;BME280;8646;49.716;9.266;2023-02-14T15:55:26;102051.56;;;5.19;84.33
17060;BME280;8646;49.716;9.266;2023-02-14T15:58:31;102045.22;;;5.09;84.63
17060;BME280;8646;49.716;9.266;2023-02-14T16:01:36;102045.09;;;4.95;85.70
17060;BME280;8646;49.716;9.266;2023-02-14T16:04:40;102045.97;;;4.91;85.55
17060;BME280;8646;49.716;9.266;2023-02-14T16:07:55;102041.47;;;4.87;85.99
17060;BME280;8646;49.716;9.266;2023-02-14T16:11:01;102041.59;;;5.04;85.14
17060;BME280;8646;49.716;9.266;2023-02-14T16:14:32;102037.94;;;4.96;85.66
17060;BME280;8646;49.716;9.266;2023-02-14T16:17:36;102038.88;;;4.99;85.89
17060;BME280;8646;49.716;9.266;2023-02-14T16:20:41;102037.13;;;5.02;85.41
17060;BME280;8646;49.716;9.266;2023-02-14T16:24:11;102031.66;;;4.86;85.54
17060;BME280;8646;49.716;9.266;2023-02-14T16:27:14;102041.59;;;5.06;84.83
17060;BME280;8646;49.716;9.266;2023-02-14T16:30:18;102043.50;;;5.20;84.16
17060;BME280;8646;49.716;9.266;2023-02-14T16:33:23;102015.56;;;4.86;84.75
17060;BME280;8646;49.716;9.266;2023-02-14T16:36:29;102042.38;;;4.89;85.63
17060;BME280;8646;49.716;9.266;2023-02-14T16:39:34;102037.81;;;4.79;85.97
17060;BME280;8646;49.716;9.266;2023-02-14T16:42:39;102051.25;;;4.78;86.19
17060;BME280;8646;49.716;9.266;2023-02-14T16:45:43;102044.22;;;4.93;85.48
17060;BME280;8646;49.716;9.266;2023-02-14T16:48:46;102052.13;;;4.77;85.84
17060;BME280;8646;49.716;9.266;2023-02-14T16:51:53;102053.03;;;4.79;85.96
17060;BME280;8646;49.716;9.266;2023-02-14T16:54:57;102051.19;;;4.73;85.86
17060;BME280;8646;49.716;9.266;2023-02-14T16:58:01;102049.38;;;4.69;86.11
17060;BME280;8646;49.716;9.266;2023-02-14T17:01:04;102061.78;;;4.56;86.75